CFG162 EDDF-MMUN
Flight info
| Callsign | CFG162 |
|---|---|
| Flight time | N/A |
| Altitude | 32000 |
| Route | ULKIG Y180 DIK UN857 TOLVU DCT RAPOR DCT GIMER/N0468F330 DCT ESTOC DCT PON DCT DITAL DCT GODIX DCT DIDAK DCT AKEMO/N0471F350 DCT RIVAK/M082F340 DCT SIVIR DCT PASAS DCT 42N020W/M082F360 39N030W 36N040W 33N050W/M082F380 3030N06000W DCT GECAL DCT DUNIG DCT GRATX/N0468F400 Y642 LULLS Y262 MAXIM DCT MUPKI UB879 NOSAT NOSAT1B |
| Aircraft | A339/H-SADE1E2E3GHIJ3J5M1P2RWXY/LB2D1 |
Departure
| Time | N/A |
|---|---|
| Airport | Frankfurt Main Airport (EDDF) |
Arrival
| Time | 2026-05-06 09:46 |
|---|---|
| Airport | Cancún International Airport (MMUN) |
| Time | Latitude | Longitude | Altitude | Speed | Heading |
|---|---|---|---|---|---|
| 2026-05-06 09:16 | 22.96480 | -84.42139 | 31983 ft | 446 kts | 243° |
| 2026-05-06 09:16 | 22.94903 | -84.44984 | 31983 ft | 446 kts | 242° |
| 2026-05-06 09:17 | 22.91694 | -84.50767 | 31983 ft | 456 kts | 242° |
| 2026-05-06 09:17 | 22.90032 | -84.53762 | 31981 ft | 467 kts | 242° |
| 2026-05-06 09:17 | 22.88351 | -84.56789 | 31977 ft | 475 kts | 242° |
| 2026-05-06 09:18 | 22.84909 | -84.62968 | 31976 ft | 477 kts | 242° |
| 2026-05-06 09:18 | 22.81482 | -84.69113 | 31976 ft | 478 kts | 242° |
| 2026-05-06 09:19 | 22.78048 | -84.75264 | 31976 ft | 478 kts | 242° |
| 2026-05-06 09:19 | 22.74599 | -84.81438 | 31973 ft | 478 kts | 242° |
| 2026-05-06 09:20 | 22.71171 | -84.87563 | 31974 ft | 477 kts | 242° |
| 2026-05-06 09:20 | 22.67723 | -84.93716 | 31972 ft | 478 kts | 242° |
| 2026-05-06 09:21 | 22.64266 | -84.99874 | 31974 ft | 485 kts | 241° |
| 2026-05-06 09:21 | 22.60630 | -85.06186 | 31966 ft | 502 kts | 238° |
| 2026-05-06 09:22 | 22.56492 | -85.12315 | 31966 ft | 506 kts | 236° |
| 2026-05-06 09:22 | 22.52258 | -85.18389 | 31967 ft | 506 kts | 236° |
| 2026-05-06 09:23 | 22.48034 | -85.24438 | 31969 ft | 507 kts | 236° |
| 2026-05-06 09:23 | 22.43800 | -85.30499 | 31595 ft | 501 kts | 236° |
| 2026-05-06 09:23 | 22.41716 | -85.33482 | 30892 ft | 500 kts | 236° |
| 2026-05-06 09:24 | 22.39611 | -85.36493 | 30152 ft | 498 kts | 235° |
| 2026-05-06 09:24 | 22.37553 | -85.39433 | 29516 ft | 494 kts | 235° |
| 2026-05-06 09:24 | 22.35477 | -85.42398 | 28914 ft | 490 kts | 235° |
| 2026-05-06 09:24 | 22.33448 | -85.45293 | 28341 ft | 486 kts | 235° |
| 2026-05-06 09:25 | 22.31410 | -85.48199 | 27760 ft | 482 kts | 235° |
| 2026-05-06 09:25 | 22.29390 | -85.51077 | 27179 ft | 479 kts | 235° |
| 2026-05-06 09:25 | 22.27407 | -85.53900 | 26599 ft | 476 kts | 235° |
| 2026-05-06 09:25 | 22.25410 | -85.56743 | 26009 ft | 473 kts | 235° |
| 2026-05-06 09:26 | 22.23432 | -85.59564 | 25427 ft | 470 kts | 235° |
| 2026-05-06 09:26 | 22.21476 | -85.62366 | 24855 ft | 467 kts | 235° |
| 2026-05-06 09:26 | 22.19531 | -85.65151 | 24289 ft | 464 kts | 235° |
| 2026-05-06 09:26 | 22.17614 | -85.67895 | 23731 ft | 461 kts | 235° |
| 2026-05-06 09:27 | 22.15677 | -85.70660 | 23163 ft | 459 kts | 235° |
| 2026-05-06 09:27 | 22.13772 | -85.73380 | 22601 ft | 456 kts | 235° |
| 2026-05-06 09:27 | 22.11856 | -85.76111 | 22054 ft | 454 kts | 235° |
| 2026-05-06 09:27 | 22.09972 | -85.78796 | 21518 ft | 451 kts | 235° |
| 2026-05-06 09:28 | 22.08078 | -85.81490 | 20984 ft | 449 kts | 235° |
| 2026-05-06 09:28 | 22.06207 | -85.84152 | 20666 ft | 445 kts | 235° |
| 2026-05-06 09:28 | 22.04337 | -85.86810 | 20462 ft | 447 kts | 235° |
| 2026-05-06 09:28 | 22.02466 | -85.89469 | 20292 ft | 447 kts | 235° |
| 2026-05-06 09:29 | 22.00563 | -85.92171 | 20148 ft | 446 kts | 235° |
| 2026-05-06 09:29 | 21.98693 | -85.94826 | 20031 ft | 446 kts | 235° |
| 2026-05-06 09:29 | 21.96828 | -85.97482 | 19973 ft | 445 kts | 236° |
| 2026-05-06 09:29 | 21.95104 | -86.00226 | 19843 ft | 445 kts | 239° |
| 2026-05-06 09:30 | 21.93445 | -86.03018 | 19435 ft | 442 kts | 240° |
| 2026-05-06 09:30 | 21.91805 | -86.05809 | 18998 ft | 438 kts | 240° |
| 2026-05-06 09:30 | 21.90190 | -86.08558 | 18491 ft | 436 kts | 240° |
| 2026-05-06 09:30 | 21.88552 | -86.11340 | 17927 ft | 435 kts | 240° |
| 2026-05-06 09:31 | 21.86944 | -86.14061 | 17414 ft | 432 kts | 240° |
| 2026-05-06 09:31 | 21.85344 | -86.16764 | 16949 ft | 430 kts | 239° |
| 2026-05-06 09:31 | 21.83732 | -86.19486 | 16512 ft | 427 kts | 239° |
| 2026-05-06 09:31 | 21.82143 | -86.22165 | 16095 ft | 425 kts | 239° |
| 2026-05-06 09:32 | 21.80569 | -86.24816 | 15699 ft | 422 kts | 239° |
| 2026-05-06 09:32 | 21.79006 | -86.27446 | 15305 ft | 419 kts | 239° |
| 2026-05-06 09:32 | 21.77434 | -86.30090 | 14909 ft | 416 kts | 239° |
| 2026-05-06 09:32 | 21.75874 | -86.32710 | 14526 ft | 413 kts | 239° |
| 2026-05-06 09:33 | 21.74330 | -86.35304 | 14141 ft | 410 kts | 239° |
| 2026-05-06 09:33 | 21.72795 | -86.37882 | 13764 ft | 416 kts | 239° |
| 2026-05-06 09:33 | 21.71223 | -86.40523 | 13369 ft | 419 kts | 238° |
| 2026-05-06 09:33 | 21.69674 | -86.43122 | 12994 ft | 416 kts | 238° |
| 2026-05-06 09:34 | 21.68106 | -86.45751 | 12604 ft | 413 kts | 238° |
| 2026-05-06 09:34 | 21.66566 | -86.48331 | 12211 ft | 411 kts | 238° |
| 2026-05-06 09:34 | 21.65028 | -86.50906 | 11827 ft | 408 kts | 238° |
| 2026-05-06 09:34 | 21.63503 | -86.53458 | 11428 ft | 406 kts | 238° |
| 2026-05-06 09:35 | 21.61975 | -86.56014 | 11045 ft | 403 kts | 238° |
| 2026-05-06 09:35 | 21.60479 | -86.58516 | 10667 ft | 401 kts | 238° |
| 2026-05-06 09:35 | 21.58974 | -86.61031 | 10283 ft | 399 kts | 238° |
| 2026-05-06 09:35 | 21.57465 | -86.63554 | 9897 ft | 397 kts | 238° |
| 2026-05-06 09:36 | 21.55976 | -86.66041 | 9534 ft | 395 kts | 237° |
| 2026-05-06 09:36 | 21.54502 | -86.68503 | 9173 ft | 392 kts | 237° |
| 2026-05-06 09:36 | 21.53020 | -86.70975 | 8810 ft | 389 kts | 237° |
| 2026-05-06 09:36 | 21.51566 | -86.73398 | 8447 ft | 387 kts | 237° |
| 2026-05-06 09:37 | 21.50125 | -86.75800 | 8079 ft | 385 kts | 237° |
| 2026-05-06 09:37 | 21.48667 | -86.78229 | 7720 ft | 383 kts | 237° |
| 2026-05-06 09:37 | 21.47230 | -86.80625 | 7366 ft | 381 kts | 237° |
| 2026-05-06 09:37 | 21.45801 | -86.83006 | 7034 ft | 376 kts | 236° |
| 2026-05-06 09:38 | 21.44418 | -86.85310 | 6514 ft | 361 kts | 236° |
| 2026-05-06 09:38 | 21.43098 | -86.87509 | 6233 ft | 334 kts | 236° |
| 2026-05-06 09:38 | 21.41891 | -86.89514 | 5981 ft | 312 kts | 235° |
| 2026-05-06 09:38 | 21.40745 | -86.91419 | 5713 ft | 295 kts | 235° |
| 2026-05-06 09:39 | 21.39661 | -86.93218 | 5452 ft | 282 kts | 235° |
| 2026-05-06 09:39 | 21.38584 | -86.95000 | 5186 ft | 282 kts | 235° |
| 2026-05-06 09:39 | 21.37516 | -86.96767 | 4920 ft | 281 kts | 234° |
| 2026-05-06 09:39 | 21.36250 | -86.98289 | 4575 ft | 274 kts | 207° |
| 2026-05-06 09:40 | 21.34475 | -86.98865 | 4183 ft | 261 kts | 179° |
| 2026-05-06 09:40 | 21.32684 | -86.98865 | 3648 ft | 258 kts | 176° |
| 2026-05-06 09:40 | 21.29135 | -86.98878 | 2750 ft | 248 kts | 178° |
| 2026-05-06 09:41 | 21.27436 | -86.98940 | 2555 ft | 236 kts | 178° |
| 2026-05-06 09:41 | 21.25808 | -86.99019 | 2445 ft | 231 kts | 179° |
| 2026-05-06 09:41 | 21.24214 | -86.99106 | 2255 ft | 230 kts | 179° |
| 2026-05-06 09:41 | 21.22613 | -86.99200 | 2040 ft | 230 kts | 179° |
| 2026-05-06 09:42 | 21.21021 | -86.99150 | 1859 ft | 224 kts | 164° |
| 2026-05-06 09:42 | 21.19538 | -86.98682 | 1761 ft | 218 kts | 158° |
| 2026-05-06 09:42 | 21.18119 | -86.98159 | 1621 ft | 212 kts | 158° |
| 2026-05-06 09:42 | 21.16750 | -86.97669 | 1420 ft | 202 kts | 159° |
| 2026-05-06 09:43 | 21.15446 | -86.97223 | 1272 ft | 188 kts | 160° |
| 2026-05-06 09:43 | 21.14257 | -86.96832 | 1269 ft | 169 kts | 160° |
| 2026-05-06 09:43 | 21.13163 | -86.96477 | 1257 ft | 162 kts | 159° |
| 2026-05-06 09:43 | 21.12074 | -86.96124 | 1281 ft | 163 kts | 160° |
| 2026-05-06 09:44 | 21.10987 | -86.95773 | 1269 ft | 163 kts | 160° |
| 2026-05-06 09:44 | 21.09896 | -86.95424 | 1265 ft | 163 kts | 160° |
| 2026-05-06 09:44 | 21.08806 | -86.95077 | 1265 ft | 163 kts | 159° |
| 2026-05-06 09:44 | 21.07880 | -86.94450 | 1176 ft | 155 kts | 132° |
| 2026-05-06 09:45 | 21.07243 | -86.93533 | 977 ft | 148 kts | 122° |
| 2026-05-06 09:45 | 21.06712 | -86.92612 | 802 ft | 146 kts | 122° |
| 2026-05-06 09:45 | 21.06162 | -86.91696 | 631 ft | 146 kts | 124° |
| 2026-05-06 09:45 | 21.05595 | -86.90797 | 459 ft | 146 kts | 124° |
| 2026-05-06 09:46 | 21.05022 | -86.89898 | 236 ft | 143 kts | 125° |
| 2026-05-06 09:46 | 21.04488 | -86.89027 | 54 ft | 137 kts | 124° |
| 2026-05-06 09:46 | 21.04020 | -86.88281 | 36 ft | 83 kts | 124° |
| 2026-05-06 09:46 | 21.03849 | -86.87995 | 33 ft | 23 kts | 102° |
| 2026-05-06 09:47 | 21.03859 | -86.87873 | 33 ft | 11 kts | 102° |
| 2026-05-06 09:47 | 21.03849 | -86.87780 | 33 ft | 12 kts | 83° |
| 2026-05-06 09:47 | 21.03875 | -86.87762 | 33 ft | 5 kts | 334° |
| 2026-05-06 09:47 | 21.03917 | -86.87805 | 33 ft | 11 kts | 300° |
| 2026-05-06 09:48 | 21.03965 | -86.87884 | 33 ft | 16 kts | 304° |
| 2026-05-06 09:48 | 21.04044 | -86.88004 | 34 ft | 20 kts | 304° |
| 2026-05-06 09:48 | 21.04119 | -86.88127 | 35 ft | 19 kts | 303° |
| 2026-05-06 09:48 | 21.04192 | -86.88248 | 38 ft | 20 kts | 303° |
| 2026-05-06 09:49 | 21.04273 | -86.88378 | 40 ft | 20 kts | 304° |
| 2026-05-06 09:49 | 21.04352 | -86.88502 | 43 ft | 19 kts | 303° |
| 2026-05-06 09:49 | 21.04419 | -86.88602 | 44 ft | 9 kts | 328° |
| 2026-05-06 09:49 | 21.04487 | -86.88610 | 45 ft | 13 kts | 19° |
| 2026-05-06 09:50 | 21.04613 | -86.88522 | 48 ft | 25 kts | 34° |
| 2026-05-06 09:50 | 21.04740 | -86.88429 | 53 ft | 15 kts | 33° |
| 2026-05-06 09:50 | 21.04765 | -86.88384 | 54 ft | 6 kts | 94° |
| 2026-05-06 09:50 | 21.04746 | -86.88339 | 53 ft | 1 kts | 121° |
| 2026-05-06 09:51 | 21.04744 | -86.88337 | 53 ft | 0 kts | 122° |